CheckWX is a tool to help pilots better visualize weather data.  It is not intended as a substitute for an official pre-flight weather briefing.

03:16:16 UTC

KCQT METAR
Los Angeles / USC Campus Downtown Airport
Los Angeles, California, USA
Current

29 mins ago

KCQT 240247Z AUTO 27005KT 10SM FEW060 15/11 A3013 RMK AO2 SLP201 T01500111 53006
Observed
Mar-24 @ 02:47 UTC
Wind
  • 270° at 5 KTS
Visibility
10 SM
Flight Rules
VFR
Cloud Levels
  • Few at 6,000' AGL
Temperature
15°C / 59°F
Dewpoint
11°C / 52°F
Humidity
77%
Altimeter
30.13" Hg
Pressure
1020.1 hPa
Previous

1 hour ago

KCQT 240147Z AUTO 26004KT 10SM BKN065 16/11 A3012 RMK AO2 SLP198 T01560111
Observed
Mar-24 @ 01:47 UTC
Wind
  • 260° at 4 KTS
Visibility
10 SM
Flight Rules
VFR
Cloud Levels
  • Broken at 6,500' AGL
Temperature
16°C / 61°F
Dewpoint
11°C / 52°F
Humidity
72%
Altimeter
30.12" Hg
Pressure
1019.8 hPa
Previous

2 hours ago

KCQT 240047Z AUTO VRB06KT 10SM BKN060 17/11 A3011 RMK AO2 SLP196 T01670111
Observed
Mar-24 @ 00:47 UTC
Wind
  • Variable at 6 KTS
Visibility
10 SM
Flight Rules
VFR
Cloud Levels
  • Broken at 6,000' AGL
Temperature
17°C / 63°F
Dewpoint
11°C / 52°F
Humidity
68%
Altimeter
30.11" Hg
Pressure
1019.6 hPa